sensor_id;sensor_type;location;lat;lon;timestamp;P1;durP1;ratioP1;P2;durP2;ratioP2
6376;SDS011;3221;48.858;10.128;2023-08-21T00:01:51;12.10;;;9.18;;
6376;SDS011;3221;48.858;10.128;2023-08-21T00:04:18;12.25;;;9.07;;
6376;SDS011;3221;48.858;10.128;2023-08-21T00:06:45;10.93;;;9.27;;
6376;SDS011;3221;48.858;10.128;2023-08-21T00:09:12;11.93;;;8.52;;
6376;SDS011;3221;48.858;10.128;2023-08-21T00:11:39;11.63;;;9.13;;
6376;SDS011;3221;48.858;10.128;2023-08-21T00:14:06;9.48;;;8.55;;
6376;SDS011;3221;48.858;10.128;2023-08-21T00:16:33;10.27;;;8.93;;
6376;SDS011;3221;48.858;10.128;2023-08-21T00:19:01;11.23;;;9.00;;
6376;SDS011;3221;48.858;10.128;2023-08-21T00:21:28;9.93;;;8.93;;
6376;SDS011;3221;48.858;10.128;2023-08-21T00:23:55;10.00;;;8.98;;
6376;SDS011;3221;48.858;10.128;2023-08-21T00:26:22;10.82;;;8.95;;
6376;SDS011;3221;48.858;10.128;2023-08-21T00:28:49;10.65;;;9.55;;
6376;SDS011;3221;48.858;10.128;2023-08-21T00:31:16;10.85;;;8.73;;
6376;SDS011;3221;48.858;10.128;2023-08-21T00:33:43;10.48;;;9.35;;
6376;SDS011;3221;48.858;10.128;2023-08-21T00:36:10;9.55;;;8.65;;
6376;SDS011;3221;48.858;10.128;2023-08-21T00:38:37;13.60;;;9.52;;
6376;SDS011;3221;48.858;10.128;2023-08-21T00:41:04;12.35;;;10.05;;
6376;SDS011;3221;48.858;10.128;2023-08-21T00:43:31;11.68;;;9.73;;
6376;SDS011;3221;48.858;10.128;2023-08-21T00:45:58;13.93;;;10.75;;
6376;SDS011;3221;48.858;10.128;2023-08-21T00:48:25;17.85;;;11.05;;
6376;SDS011;3221;48.858;10.128;2023-08-21T00:50:53;11.23;;;10.13;;
6376;SDS011;3221;48.858;10.128;2023-08-21T00:53:20;12.32;;;10.07;;
6376;SDS011;3221;48.858;10.128;2023-08-21T00:55:46;15.30;;;10.25;;
6376;SDS011;3221;48.858;10.128;2023-08-21T00:58:14;12.15;;;10.13;;
6376;SDS011;3221;48.858;10.128;2023-08-21T01:00:44;12.23;;;9.88;;
6376;SDS011;3221;48.858;10.128;2023-08-21T01:03:13;12.23;;;9.50;;
6376;SDS011;3221;48.858;10.128;2023-08-21T01:05:41;10.05;;;9.00;;
6376;SDS011;3221;48.858;10.128;2023-08-21T01:13:18;12.30;;;9.75;;
6376;SDS011;3221;48.858;10.128;2023-08-21T01:15:46;13.68;;;10.35;;
6376;SDS011;3221;48.858;10.128;2023-08-21T01:18:17;10.52;;;9.25;;
6376;SDS011;3221;48.858;10.128;2023-08-21T01:20:45;13.05;;;10.23;;
6376;SDS011;3221;48.858;10.128;2023-08-21T01:25:59;12.20;;;9.48;;
6376;SDS011;3221;48.858;10.128;2023-08-21T01:28:26;11.05;;;9.43;;
6376;SDS011;3221;48.858;10.128;2023-08-21T01:30:57;10.65;;;9.55;;
6376;SDS011;3221;48.858;10.128;2023-08-21T01:33:42;16.90;;;11.10;;
6376;SDS011;3221;48.858;10.128;2023-08-21T01:36:12;11.55;;;9.90;;
6376;SDS011;3221;48.858;10.128;2023-08-21T01:38:40;12.18;;;10.88;;
6376;SDS011;3221;48.858;10.128;2023-08-21T01:41:07;14.60;;;11.82;;
6376;SDS011;3221;48.858;10.128;2023-08-21T01:43:34;14.02;;;12.57;;
6376;SDS011;3221;48.858;10.128;2023-08-21T01:46:01;14.18;;;12.77;;
6376;SDS011;3221;48.858;10.128;2023-08-21T01:48:29;13.40;;;12.00;;
6376;SDS011;3221;48.858;10.128;2023-08-21T01:50:57;14.82;;;12.13;;
6376;SDS011;3221;48.858;10.128;2023-08-21T01:53:26;13.07;;;11.45;;
6376;SDS011;3221;48.858;10.128;2023-08-21T01:55:53;14.07;;;11.73;;
6376;SDS011;3221;48.858;10.128;2023-08-21T01:58:20;14.18;;;11.15;;
6376;SDS011;3221;48.858;10.128;2023-08-21T02:00:48;13.05;;;11.20;;
6376;SDS011;3221;48.858;10.128;2023-08-21T02:03:16;13.75;;;12.35;;
6376;SDS011;3221;48.858;10.128;2023-08-21T02:05:43;12.55;;;11.30;;
6376;SDS011;3221;48.858;10.128;2023-08-21T02:08:12;12.93;;;11.60;;
6376;SDS011;3221;48.858;10.128;2023-08-21T02:10:49;13.88;;;11.98;;
6376;SDS011;3221;48.858;10.128;2023-08-21T02:13:17;12.43;;;11.15;;
6376;SDS011;3221;48.858;10.128;2023-08-21T02:15:45;13.23;;;11.52;;
6376;SDS011;3221;48.858;10.128;2023-08-21T02:18:12;13.38;;;11.70;;
6376;SDS011;3221;48.858;10.128;2023-08-21T02:20:39;14.15;;;11.88;;
6376;SDS011;3221;48.858;10.128;2023-08-21T02:23:08;14.82;;;11.68;;
6376;SDS011;3221;48.858;10.128;2023-08-21T02:25:35;13.32;;;10.95;;
6376;SDS011;3221;48.858;10.128;2023-08-21T02:28:02;13.23;;;11.23;;
6376;SDS011;3221;48.858;10.128;2023-08-21T02:30:31;12.07;;;10.55;;
6376;SDS011;3221;48.858;10.128;2023-08-21T02:32:58;12.95;;;10.63;;
6376;SDS011;3221;48.858;10.128;2023-08-21T02:35:25;11.95;;;10.60;;
6376;SDS011;3221;48.858;10.128;2023-08-21T02:37:52;13.57;;;11.40;;
6376;SDS011;3221;48.858;10.128;2023-08-21T02:40:19;11.38;;;10.25;;
6376;SDS011;3221;48.858;10.128;2023-08-21T02:42:46;12.27;;;10.32;;
6376;SDS011;3221;48.858;10.128;2023-08-21T02:45:13;13.32;;;10.80;;
6376;SDS011;3221;48.858;10.128;2023-08-21T02:47:40;12.48;;;10.70;;
6376;SDS011;3221;48.858;10.128;2023-08-21T02:50:08;13.65;;;11.25;;
6376;SDS011;3221;48.858;10.128;2023-08-21T02:52:37;11.70;;;9.50;;
6376;SDS011;3221;48.858;10.128;2023-08-21T02:55:05;12.00;;;10.15;;
6376;SDS011;3221;48.858;10.128;2023-08-21T02:57:32;11.57;;;10.02;;
6376;SDS011;3221;48.858;10.128;2023-08-21T02:59:59;11.52;;;10.32;;
6376;SDS011;3221;48.858;10.128;2023-08-21T03:02:26;14.32;;;9.85;;
6376;SDS011;3221;48.858;10.128;2023-08-21T03:04:53;11.30;;;10.20;;
6376;SDS011;3221;48.858;10.128;2023-08-21T03:07:20;11.10;;;9.95;;
6376;SDS011;3221;48.858;10.128;2023-08-21T03:09:47;10.52;;;9.52;;
6376;SDS011;3221;48.858;10.128;2023-08-21T03:12:15;14.13;;;10.60;;
6376;SDS011;3221;48.858;10.128;2023-08-21T03:14:42;12.10;;;9.45;;
6376;SDS011;3221;48.858;10.128;2023-08-21T03:17:09;11.32;;;10.13;;
6376;SDS011;3221;48.858;10.128;2023-08-21T03:19:36;12.73;;;11.43;;
6376;SDS011;3221;48.858;10.128;2023-08-21T03:22:03;13.15;;;10.82;;
6376;SDS011;3221;48.858;10.128;2023-08-21T03:24:31;12.63;;;11.27;;
6376;SDS011;3221;48.858;10.128;2023-08-21T03:26:58;15.13;;;12.15;;
6376;SDS011;3221;48.858;10.128;2023-08-21T03:29:25;14.25;;;12.75;;
6376;SDS011;3221;48.858;10.128;2023-08-21T03:31:53;14.82;;;12.27;;
6376;SDS011;3221;48.858;10.128;2023-08-21T03:34:24;13.68;;;11.77;;
6376;SDS011;3221;48.858;10.128;2023-08-21T03:36:56;11.93;;;10.73;;
6376;SDS011;3221;48.858;10.128;2023-08-21T03:39:23;12.07;;;10.80;;
6376;SDS011;3221;48.858;10.128;2023-08-21T03:41:50;11.65;;;10.25;;
6376;SDS011;3221;48.858;10.128;2023-08-21T03:44:17;11.98;;;10.77;;
6376;SDS011;3221;48.858;10.128;2023-08-21T03:46:44;10.82;;;9.80;;
6376;SDS011;3221;48.858;10.128;2023-08-21T03:49:11;12.52;;;10.63;;
6376;SDS011;3221;48.858;10.128;2023-08-21T03:51:37;19.13;;;10.98;;
6376;SDS011;3221;48.858;10.128;2023-08-21T03:54:04;10.52;;;9.52;;
6376;SDS011;3221;48.858;10.128;2023-08-21T03:56:31;11.68;;;10.48;;
6376;SDS011;3221;48.858;10.128;2023-08-21T03:58:58;10.93;;;9.38;;
6376;SDS011;3221;48.858;10.128;2023-08-21T04:01:25;12.68;;;11.15;;
6376;SDS011;3221;48.858;10.128;2023-08-21T04:03:53;11.05;;;9.93;;
6376;SDS011;3221;48.858;10.128;2023-08-21T04:06:20;11.73;;;10.50;;
6376;SDS011;3221;48.858;10.128;2023-08-21T04:08:47;11.23;;;10.02;;
6376;SDS011;3221;48.858;10.128;2023-08-21T04:11:14;11.23;;;10.07;;
6376;SDS011;3221;48.858;10.128;2023-08-21T04:13:42;12.63;;;9.55;;
6376;SDS011;3221;48.858;10.128;2023-08-21T04:16:09;13.38;;;10.10;;
6376;SDS011;3221;48.858;10.128;2023-08-21T04:18:40;11.32;;;10.15;;
6376;SDS011;3221;48.858;10.128;2023-08-21T04:21:08;11.80;;;10.65;;
6376;SDS011;3221;48.858;10.128;2023-08-21T04:23:36;12.35;;;11.05;;
6376;SDS011;3221;48.858;10.128;2023-08-21T04:26:03;13.40;;;12.00;;
6376;SDS011;3221;48.858;10.128;2023-08-21T04:28:31;12.35;;;10.60;;
6376;SDS011;3221;48.858;10.128;2023-08-21T04:31:00;12.40;;;11.05;;
6376;SDS011;3221;48.858;10.128;2023-08-21T04:33:30;12.02;;;10.13;;
6376;SDS011;3221;48.858;10.128;2023-08-21T04:35:58;11.23;;;10.13;;
6376;SDS011;3221;48.858;10.128;2023-08-21T04:38:25;11.45;;;9.98;;
6376;SDS011;3221;48.858;10.128;2023-08-21T04:40:52;13.30;;;11.13;;
6376;SDS011;3221;48.858;10.128;2023-08-21T04:43:20;12.02;;;10.73;;
6376;SDS011;3221;48.858;10.128;2023-08-21T04:45:49;12.02;;;10.82;;
6376;SDS011;3221;48.858;10.128;2023-08-21T04:48:21;13.63;;;11.10;;
6376;SDS011;3221;48.858;10.128;2023-08-21T04:50:48;12.57;;;10.85;;
6376;SDS011;3221;48.858;10.128;2023-08-21T04:53:16;11.32;;;10.32;;
6376;SDS011;3221;48.858;10.128;2023-08-21T04:55:44;12.15;;;10.80;;
6376;SDS011;3221;48.858;10.128;2023-08-21T04:58:14;11.52;;;10.32;;
6376;SDS011;3221;48.858;10.128;2023-08-21T05:00:44;11.77;;;10.10;;
6376;SDS011;3221;48.858;10.128;2023-08-21T05:03:12;12.07;;;10.70;;
6376;SDS011;3221;48.858;10.128;2023-08-21T05:05:51;12.80;;;11.43;;
6376;SDS011;3221;48.858;10.128;2023-08-21T05:08:23;12.50;;;10.85;;
6376;SDS011;3221;48.858;10.128;2023-08-21T05:10:58;12.98;;;11.30;;
6376;SDS011;3221;48.858;10.128;2023-08-21T05:13:29;10.95;;;9.98;;
6376;SDS011;3221;48.858;10.128;2023-08-21T05:15:58;11.52;;;10.02;;
6376;SDS011;3221;48.858;10.128;2023-08-21T05:18:29;10.93;;;9.75;;
6376;SDS011;3221;48.858;10.128;2023-08-21T05:20:56;11.02;;;9.10;;
6376;SDS011;3221;48.858;10.128;2023-08-21T05:23:23;10.73;;;9.63;;
6376;SDS011;3221;48.858;10.128;2023-08-21T05:25:53;10.10;;;9.20;;
6376;SDS011;3221;48.858;10.128;2023-08-21T05:28:20;11.63;;;10.40;;
6376;SDS011;3221;48.858;10.128;2023-08-21T05:30:47;13.88;;;11.43;;
6376;SDS011;3221;48.858;10.128;2023-08-21T05:33:18;11.50;;;10.40;;
6376;SDS011;3221;48.858;10.128;2023-08-21T05:35:48;11.55;;;10.32;;
6376;SDS011;3221;48.858;10.128;2023-08-21T05:38:15;10.93;;;9.80;;
6376;SDS011;3221;48.858;10.128;2023-08-21T05:40:43;11.45;;;10.38;;
6376;SDS011;3221;48.858;10.128;2023-08-21T05:43:10;12.57;;;11.20;;
6376;SDS011;3221;48.858;10.128;2023-08-21T05:45:40;11.63;;;10.23;;
6376;SDS011;3221;48.858;10.128;2023-08-21T05:48:07;12.73;;;11.27;;
6376;SDS011;3221;48.858;10.128;2023-08-21T05:50:34;12.95;;;11.68;;
6376;SDS011;3221;48.858;10.128;2023-08-21T05:53:03;12.93;;;10.63;;
6376;SDS011;3221;48.858;10.128;2023-08-21T05:55:31;12.30;;;11.10;;
6376;SDS011;3221;48.858;10.128;2023-08-21T05:57:59;13.90;;;10.98;;
6376;SDS011;3221;48.858;10.128;2023-08-21T06:00:26;11.57;;;10.43;;
6376;SDS011;3221;48.858;10.128;2023-08-21T06:02:53;12.02;;;10.82;;
6376;SDS011;3221;48.858;10.128;2023-08-21T06:05:40;13.40;;;11.50;;
6376;SDS011;3221;48.858;10.128;2023-08-21T06:08:07;14.63;;;11.35;;
6376;SDS011;3221;48.858;10.128;2023-08-21T06:10:36;11.73;;;10.60;;
6376;SDS011;3221;48.858;10.128;2023-08-21T06:13:03;12.07;;;10.95;;
6376;SDS011;3221;48.858;10.128;2023-08-21T06:15:30;12.05;;;10.82;;
6376;SDS011;3221;48.858;10.128;2023-08-21T06:17:58;11.35;;;10.25;;
6376;SDS011;3221;48.858;10.128;2023-08-21T06:20:25;13.65;;;10.70;;
6376;SDS011;3221;48.858;10.128;2023-08-21T06:22:52;12.85;;;10.40;;
6376;SDS011;3221;48.858;10.128;2023-08-21T06:25:20;11.50;;;10.38;;
6376;SDS011;3221;48.858;10.128;2023-08-21T06:27:47;11.98;;;10.73;;
6376;SDS011;3221;48.858;10.128;2023-08-21T06:30:25;12.43;;;10.60;;
6376;SDS011;3221;48.858;10.128;2023-08-21T06:32:53;12.57;;;10.90;;
6376;SDS011;3221;48.858;10.128;2023-08-21T06:35:20;12.10;;;11.00;;
6376;SDS011;3221;48.858;10.128;2023-08-21T06:37:47;14.45;;;11.23;;
6376;SDS011;3221;48.858;10.128;2023-08-21T06:40:15;13.27;;;11.30;;
6376;SDS011;3221;48.858;10.128;2023-08-21T06:42:42;11.63;;;10.43;;
6376;SDS011;3221;48.858;10.128;2023-08-21T06:45:09;14.98;;;11.55;;
6376;SDS011;3221;48.858;10.128;2023-08-21T06:47:36;12.52;;;11.27;;
6376;SDS011;3221;48.858;10.128;2023-08-21T06:50:04;14.43;;;11.88;;
6376;SDS011;3221;48.858;10.128;2023-08-21T06:52:31;16.05;;;12.07;;
6376;SDS011;3221;48.858;10.128;2023-08-21T06:54:58;12.32;;;11.02;;
6376;SDS011;3221;48.858;10.128;2023-08-21T06:57:25;12.35;;;11.05;;
6376;SDS011;3221;48.858;10.128;2023-08-21T06:59:52;13.25;;;11.70;;
6376;SDS011;3221;48.858;10.128;2023-08-21T07:02:18;12.70;;;11.13;;
6376;SDS011;3221;48.858;10.128;2023-08-21T07:04:45;13.45;;;11.80;;
6376;SDS011;3221;48.858;10.128;2023-08-21T07:07:12;11.88;;;10.45;;
6376;SDS011;3221;48.858;10.128;2023-08-21T07:09:39;12.48;;;11.38;;
6376;SDS011;3221;48.858;10.128;2023-08-21T07:12:06;13.98;;;11.98;;
6376;SDS011;3221;48.858;10.128;2023-08-21T07:14:33;13.82;;;12.38;;
6376;SDS011;3221;48.858;10.128;2023-08-21T07:17:00;12.70;;;11.18;;
6376;SDS011;3221;48.858;10.128;2023-08-21T07:19:27;12.60;;;11.32;;
6376;SDS011;3221;48.858;10.128;2023-08-21T07:21:54;13.85;;;11.23;;
6376;SDS011;3221;48.858;10.128;2023-08-21T07:24:21;11.52;;;10.40;;
6376;SDS011;3221;48.858;10.128;2023-08-21T07:26:48;11.75;;;10.55;;
6376;SDS011;3221;48.858;10.128;2023-08-21T07:29:14;13.65;;;12.25;;
6376;SDS011;3221;48.858;10.128;2023-08-21T07:31:41;12.85;;;11.50;;
6376;SDS011;3221;48.858;10.128;2023-08-21T07:34:08;13.20;;;11.90;;
6376;SDS011;3221;48.858;10.128;2023-08-21T07:36:35;12.65;;;11.35;;
6376;SDS011;3221;48.858;10.128;2023-08-21T07:39:02;14.38;;;11.80;;
6376;SDS011;3221;48.858;10.128;2023-08-21T07:41:29;13.30;;;11.98;;
6376;SDS011;3221;48.858;10.128;2023-08-21T07:43:56;13.52;;;12.13;;
6376;SDS011;3221;48.858;10.128;2023-08-21T07:46:23;14.68;;;11.45;;
6376;SDS011;3221;48.858;10.128;2023-08-21T07:48:50;14.80;;;11.35;;
6376;SDS011;3221;48.858;10.128;2023-08-21T07:51:18;13.32;;;11.95;;
6376;SDS011;3221;48.858;10.128;2023-08-21T07:53:45;13.77;;;12.32;;
6376;SDS011;3221;48.858;10.128;2023-08-21T07:56:12;13.88;;;12.55;;
6376;SDS011;3221;48.858;10.128;2023-08-21T07:58:39;15.07;;;13.20;;
6376;SDS011;3221;48.858;10.128;2023-08-21T08:01:06;17.55;;;13.18;;
6376;SDS011;3221;48.858;10.128;2023-08-21T08:03:33;13.27;;;11.85;;
6376;SDS011;3221;48.858;10.128;2023-08-21T08:06:00;13.50;;;12.23;;
6376;SDS011;3221;48.858;10.128;2023-08-21T08:08:27;15.02;;;11.30;;
6376;SDS011;3221;48.858;10.128;2023-08-21T08:10:55;13.02;;;11.75;;
6376;SDS011;3221;48.858;10.128;2023-08-21T08:13:26;14.20;;;12.70;;
6376;SDS011;3221;48.858;10.128;2023-08-21T08:15:53;14.90;;;12.38;;
6376;SDS011;3221;48.858;10.128;2023-08-21T08:18:20;15.15;;;12.90;;
6376;SDS011;3221;48.858;10.128;2023-08-21T08:20:47;13.82;;;12.48;;
6376;SDS011;3221;48.858;10.128;2023-08-21T08:23:13;18.45;;;13.57;;
6376;SDS011;3221;48.858;10.128;2023-08-21T08:25:40;13.00;;;10.73;;
6376;SDS011;3221;48.858;10.128;2023-08-21T08:28:07;12.23;;;10.90;;
6376;SDS011;3221;48.858;10.128;2023-08-21T08:30:34;12.15;;;10.95;;
6376;SDS011;3221;48.858;10.128;2023-08-21T08:33:01;11.85;;;10.65;;
6376;SDS011;3221;48.858;10.128;2023-08-21T08:35:28;12.45;;;10.88;;
6376;SDS011;3221;48.858;10.128;2023-08-21T08:37:55;12.07;;;10.93;;
6376;SDS011;3221;48.858;10.128;2023-08-21T08:40:22;13.25;;;10.88;;
6376;SDS011;3221;48.858;10.128;2023-08-21T08:42:49;11.63;;;10.43;;
6376;SDS011;3221;48.858;10.128;2023-08-21T08:45:15;11.80;;;10.35;;
6376;SDS011;3221;48.858;10.128;2023-08-21T08:47:54;10.98;;;9.88;;
6376;SDS011;3221;48.858;10.128;2023-08-21T08:50:21;11.82;;;10.30;;
6376;SDS011;3221;48.858;10.128;2023-08-21T08:52:50;12.10;;;10.02;;
6376;SDS011;3221;48.858;10.128;2023-08-21T08:55:18;12.05;;;9.43;;
6376;SDS011;3221;48.858;10.128;2023-08-21T08:57:45;10.50;;;9.45;;
6376;SDS011;3221;48.858;10.128;2023-08-21T09:00:13;10.48;;;9.00;;
6376;SDS011;3221;48.858;10.128;2023-08-21T09:02:40;10.35;;;9.45;;
6376;SDS011;3221;48.858;10.128;2023-08-21T09:05:08;13.32;;;10.30;;
6376;SDS011;3221;48.858;10.128;2023-08-21T09:07:36;11.32;;;9.88;;
6376;SDS011;3221;48.858;10.128;2023-08-21T09:10:03;11.48;;;10.10;;
6376;SDS011;3221;48.858;10.128;2023-08-21T09:12:33;12.70;;;10.23;;
6376;SDS011;3221;48.858;10.128;2023-08-21T09:15:00;11.30;;;10.18;;
6376;SDS011;3221;48.858;10.128;2023-08-21T09:17:33;11.63;;;10.38;;
6376;SDS011;3221;48.858;10.128;2023-08-21T09:20:05;10.23;;;9.18;;
6376;SDS011;3221;48.858;10.128;2023-08-21T09:22:32;10.18;;;8.90;;
6376;SDS011;3221;48.858;10.128;2023-08-21T09:25:06;10.90;;;9.20;;
6376;SDS011;3221;48.858;10.128;2023-08-21T09:27:38;9.65;;;8.15;;
6376;SDS011;3221;48.858;10.128;2023-08-21T09:30:10;9.70;;;8.70;;
6376;SDS011;3221;48.858;10.128;2023-08-21T09:32:57;10.90;;;9.48;;
6376;SDS011;3221;48.858;10.128;2023-08-21T09:35:27;10.57;;;9.10;;
6376;SDS011;3221;48.858;10.128;2023-08-21T09:37:54;11.07;;;8.93;;
6376;SDS011;3221;48.858;10.128;2023-08-21T09:40:21;13.25;;;9.25;;
6376;SDS011;3221;48.858;10.128;2023-08-21T09:43:08;10.00;;;9.00;;
6376;SDS011;3221;48.858;10.128;2023-08-21T09:45:36;11.93;;;8.98;;
6376;SDS011;3221;48.858;10.128;2023-08-21T09:48:04;9.65;;;8.80;;
6376;SDS011;3221;48.858;10.128;2023-08-21T09:50:31;10.52;;;8.98;;
6376;SDS011;3221;48.858;10.128;2023-08-21T09:52:59;13.27;;;9.60;;
6376;SDS011;3221;48.858;10.128;2023-08-21T09:55:26;12.13;;;9.02;;
6376;SDS011;3221;48.858;10.128;2023-08-21T09:57:58;11.00;;;8.48;;
6376;SDS011;3221;48.858;10.128;2023-08-21T10:00:31;9.40;;;8.40;;
6376;SDS011;3221;48.858;10.128;2023-08-21T10:03:02;9.55;;;8.40;;
6376;SDS011;3221;48.858;10.128;2023-08-21T10:05:31;9.35;;;8.07;;
6376;SDS011;3221;48.858;10.128;2023-08-21T10:08:00;9.77;;;8.80;;
6376;SDS011;3221;48.858;10.128;2023-08-21T10:10:32;12.85;;;7.68;;
6376;SDS011;3221;48.858;10.128;2023-08-21T10:13:04;13.45;;;7.82;;
6376;SDS011;3221;48.858;10.128;2023-08-21T10:15:31;10.27;;;8.13;;
6376;SDS011;3221;48.858;10.128;2023-08-21T10:18:22;9.30;;;7.55;;
6376;SDS011;3221;48.858;10.128;2023-08-21T10:20:50;8.85;;;7.82;;
6376;SDS011;3221;48.858;10.128;2023-08-21T10:23:25;8.38;;;7.25;;
6376;SDS011;3221;48.858;10.128;2023-08-21T10:25:54;10.20;;;7.32;;
6376;SDS011;3221;48.858;10.128;2023-08-21T10:29:12;8.35;;;7.57;;
6376;SDS011;3221;48.858;10.128;2023-08-21T10:31:25;9.90;;;8.13;;
6376;SDS011;3221;48.858;10.128;2023-08-21T10:33:58;10.43;;;8.25;;
6376;SDS011;3221;48.858;10.128;2023-08-21T10:36:39;8.80;;;8.00;;
6376;SDS011;3221;48.858;10.128;2023-08-21T10:39:27;9.88;;;8.23;;
6376;SDS011;3221;48.858;10.128;2023-08-21T10:41:58;9.25;;;8.32;;
6376;SDS011;3221;48.858;10.128;2023-08-21T10:47:23;8.10;;;7.30;;
6376;SDS011;3221;48.858;10.128;2023-08-21T10:49:53;9.48;;;8.50;;
6376;SDS011;3221;48.858;10.128;2023-08-21T10:54:53;10.10;;;8.68;;
6376;SDS011;3221;48.858;10.128;2023-08-21T10:57:26;9.63;;;8.55;;
6376;SDS011;3221;48.858;10.128;2023-08-21T10:59:58;9.13;;;8.20;;
6376;SDS011;3221;48.858;10.128;2023-08-21T11:02:27;9.70;;;8.10;;
6376;SDS011;3221;48.858;10.128;2023-08-21T11:04:55;10.43;;;8.32;;
6376;SDS011;3221;48.858;10.128;2023-08-21T11:07:23;10.95;;;8.68;;
6376;SDS011;3221;48.858;10.128;2023-08-21T11:09:50;9.65;;;8.20;;
6376;SDS011;3221;48.858;10.128;2023-08-21T11:12:18;8.60;;;7.90;;
6376;SDS011;3221;48.858;10.128;2023-08-21T11:14:47;8.52;;;7.60;;
6376;SDS011;3221;48.858;10.128;2023-08-21T11:17:14;10.32;;;8.48;;
6376;SDS011;3221;48.858;10.128;2023-08-21T11:19:42;11.43;;;8.93;;
6376;SDS011;3221;48.858;10.128;2023-08-21T11:22:11;11.43;;;8.98;;
6376;SDS011;3221;48.858;10.128;2023-08-21T11:24:39;9.73;;;8.63;;
6376;SDS011;3221;48.858;10.128;2023-08-21T11:27:12;9.20;;;8.27;;
6376;SDS011;3221;48.858;10.128;2023-08-21T11:29:42;9.68;;;8.68;;
6376;SDS011;3221;48.858;10.128;2023-08-21T11:32:14;10.45;;;9.38;;
6376;SDS011;3221;48.858;10.128;2023-08-21T11:34:50;10.52;;;8.65;;
6376;SDS011;3221;48.858;10.128;2023-08-21T11:37:22;10.52;;;8.80;;
6376;SDS011;3221;48.858;10.128;2023-08-21T11:39:53;10.15;;;8.32;;
6376;SDS011;3221;48.858;10.128;2023-08-21T11:42:32;10.57;;;8.82;;
6376;SDS011;3221;48.858;10.128;2023-08-21T11:45:00;12.73;;;9.50;;
6376;SDS011;3221;48.858;10.128;2023-08-21T11:47:31;9.32;;;8.32;;
6376;SDS011;3221;48.858;10.128;2023-08-21T11:50:07;10.27;;;8.20;;
6376;SDS011;3221;48.858;10.128;2023-08-21T11:52:36;10.02;;;8.50;;
6376;SDS011;3221;48.858;10.128;2023-08-21T11:55:08;9.07;;;8.07;;
6376;SDS011;3221;48.858;10.128;2023-08-21T11:57:47;10.93;;;8.95;;
6376;SDS011;3221;48.858;10.128;2023-08-21T12:00:17;9.18;;;8.10;;
6376;SDS011;3221;48.858;10.128;2023-08-21T12:02:55;11.38;;;7.93;;
6376;SDS011;3221;48.858;10.128;2023-08-21T12:05:23;8.40;;;7.60;;
6376;SDS011;3221;48.858;10.128;2023-08-21T12:07:50;11.10;;;8.63;;
6376;SDS011;3221;48.858;10.128;2023-08-21T12:10:27;9.88;;;8.45;;
6376;SDS011;3221;48.858;10.128;2023-08-21T12:12:55;10.85;;;8.40;;
6376;SDS011;3221;48.858;10.128;2023-08-21T12:15:22;8.98;;;8.10;;
6376;SDS011;3221;48.858;10.128;2023-08-21T12:17:49;8.88;;;7.95;;
6376;SDS011;3221;48.858;10.128;2023-08-21T12:20:16;9.13;;;8.00;;
6376;SDS011;3221;48.858;10.128;2023-08-21T12:22:43;11.43;;;8.05;;
6376;SDS011;3221;48.858;10.128;2023-08-21T12:25:10;9.43;;;8.45;;
6376;SDS011;3221;48.858;10.128;2023-08-21T12:27:39;9.60;;;8.20;;
6376;SDS011;3221;48.858;10.128;2023-08-21T12:30:07;13.68;;;8.45;;
6376;SDS011;3221;48.858;10.128;2023-08-21T12:32:34;12.35;;;9.02;;
6376;SDS011;3221;48.858;10.128;2023-08-21T12:35:01;15.45;;;8.80;;
6376;SDS011;3221;48.858;10.128;2023-08-21T12:37:30;10.02;;;7.43;;
6376;SDS011;3221;48.858;10.128;2023-08-21T12:39:58;14.88;;;8.85;;
6376;SDS011;3221;48.858;10.128;2023-08-21T12:42:25;9.55;;;8.52;;
6376;SDS011;3221;48.858;10.128;2023-08-21T12:44:52;9.85;;;8.80;;
6376;SDS011;3221;48.858;10.128;2023-08-21T12:47:18;9.30;;;8.23;;
6376;SDS011;3221;48.858;10.128;2023-08-21T12:49:45;10.77;;;8.38;;
6376;SDS011;3221;48.858;10.128;2023-08-21T12:52:12;11.10;;;9.00;;
6376;SDS011;3221;48.858;10.128;2023-08-21T12:54:39;9.52;;;8.63;;
6376;SDS011;3221;48.858;10.128;2023-08-21T12:57:07;10.13;;;8.02;;
6376;SDS011;3221;48.858;10.128;2023-08-21T12:59:35;9.50;;;8.35;;
6376;SDS011;3221;48.858;10.128;2023-08-21T13:02:02;15.45;;;8.77;;
6376;SDS011;3221;48.858;10.128;2023-08-21T13:04:31;9.23;;;8.32;;
6376;SDS011;3221;48.858;10.128;2023-08-21T13:06:58;10.07;;;9.02;;
6376;SDS011;3221;48.858;10.128;2023-08-21T13:09:25;10.10;;;8.27;;
6376;SDS011;3221;48.858;10.128;2023-08-21T13:11:53;9.40;;;8.30;;
6376;SDS011;3221;48.858;10.128;2023-08-21T13:14:21;9.00;;;8.10;;
6376;SDS011;3221;48.858;10.128;2023-08-21T13:16:48;10.20;;;9.10;;
6376;SDS011;3221;48.858;10.128;2023-08-21T13:19:15;11.05;;;8.23;;
6376;SDS011;3221;48.858;10.128;2023-08-21T13:21:42;9.18;;;8.27;;
6376;SDS011;3221;48.858;10.128;2023-08-21T13:24:09;8.95;;;8.05;;
6376;SDS011;3221;48.858;10.128;2023-08-21T13:26:36;9.80;;;8.55;;
6376;SDS011;3221;48.858;10.128;2023-08-21T13:29:03;9.82;;;8.75;;
6376;SDS011;3221;48.858;10.128;2023-08-21T13:31:30;9.50;;;8.63;;
6376;SDS011;3221;48.858;10.128;2023-08-21T13:33:57;10.35;;;8.38;;
6376;SDS011;3221;48.858;10.128;2023-08-21T13:36:24;10.23;;;8.35;;
6376;SDS011;3221;48.858;10.128;2023-08-21T13:38:55;11.18;;;8.73;;
6376;SDS011;3221;48.858;10.128;2023-08-21T13:41:22;10.27;;;8.70;;
6376;SDS011;3221;48.858;10.128;2023-08-21T13:43:49;10.27;;;8.55;;
6376;SDS011;3221;48.858;10.128;2023-08-21T13:46:20;10.35;;;8.80;;
6376;SDS011;3221;48.858;10.128;2023-08-21T13:48:47;9.38;;;8.48;;
6376;SDS011;3221;48.858;10.128;2023-08-21T13:51:14;10.77;;;8.98;;
6376;SDS011;3221;48.858;10.128;2023-08-21T13:53:44;10.10;;;8.95;;
6376;SDS011;3221;48.858;10.128;2023-08-21T13:56:11;9.30;;;8.35;;
6376;SDS011;3221;48.858;10.128;2023-08-21T13:58:38;9.80;;;8.80;;
6376;SDS011;3221;48.858;10.128;2023-08-21T14:01:05;9.63;;;8.32;;
6376;SDS011;3221;48.858;10.128;2023-08-21T14:03:34;9.85;;;8.50;;
6376;SDS011;3221;48.858;10.128;2023-08-21T14:06:01;9.40;;;8.40;;
6376;SDS011;3221;48.858;10.128;2023-08-21T14:08:28;11.73;;;8.70;;
6376;SDS011;3221;48.858;10.128;2023-08-21T14:10:55;9.23;;;8.38;;
6376;SDS011;3221;48.858;10.128;2023-08-21T14:13:22;9.57;;;8.38;;
6376;SDS011;3221;48.858;10.128;2023-08-21T14:15:49;13.68;;;8.48;;
6376;SDS011;3221;48.858;10.128;2023-08-21T14:18:16;11.05;;;8.50;;
6376;SDS011;3221;48.858;10.128;2023-08-21T14:20:43;9.48;;;7.97;;
6376;SDS011;3221;48.858;10.128;2023-08-21T14:23:10;8.98;;;8.10;;
6376;SDS011;3221;48.858;10.128;2023-08-21T14:25:37;9.57;;;7.68;;
6376;SDS011;3221;48.858;10.128;2023-08-21T14:28:05;9.35;;;8.15;;
6376;SDS011;3221;48.858;10.128;2023-08-21T14:30:32;8.95;;;8.00;;
6376;SDS011;3221;48.858;10.128;2023-08-21T14:32:59;9.82;;;8.45;;
6376;SDS011;3221;48.858;10.128;2023-08-21T14:35:26;10.13;;;8.68;;
6376;SDS011;3221;48.858;10.128;2023-08-21T14:37:53;8.70;;;7.80;;
6376;SDS011;3221;48.858;10.128;2023-08-21T14:40:20;11.07;;;8.80;;
6376;SDS011;3221;48.858;10.128;2023-08-21T14:42:51;8.80;;;7.85;;
6376;SDS011;3221;48.858;10.128;2023-08-21T14:45:18;11.48;;;8.32;;
6376;SDS011;3221;48.858;10.128;2023-08-21T14:47:44;10.25;;;7.78;;
6376;SDS011;3221;48.858;10.128;2023-08-21T14:50:11;9.18;;;8.15;;
6376;SDS011;3221;48.858;10.128;2023-08-21T14:52:38;10.05;;;7.90;;
6376;SDS011;3221;48.858;10.128;2023-08-21T14:55:06;10.27;;;7.60;;
6376;SDS011;3221;48.858;10.128;2023-08-21T14:57:33;10.45;;;7.78;;
6376;SDS011;3221;48.858;10.128;2023-08-21T15:00:00;8.55;;;7.70;;
6376;SDS011;3221;48.858;10.128;2023-08-21T15:02:27;8.80;;;8.00;;
6376;SDS011;3221;48.858;10.128;2023-08-21T15:04:54;9.30;;;8.00;;